createdAt,value
2022-08-26T00:01:14.149Z,67.21
2022-08-26T00:11:26.616Z,67.14
2022-08-26T00:21:31.220Z,67.08
2022-08-26T00:31:34.300Z,67.49
2022-08-26T00:41:41.467Z,67.96
2022-08-26T00:51:48.640Z,68.07
2022-08-26T01:01:52.767Z,68.33
2022-08-26T01:11:58.149Z,70.07
2022-08-26T01:22:06.839Z,72.83
2022-08-26T01:32:15.242Z,74.54
2022-08-26T01:42:20.037Z,73.90
2022-08-26T01:52:28.268Z,74.09
2022-08-26T02:02:31.260Z,74.28
2022-08-26T02:12:35.607Z,74.41
2022-08-26T02:22:40.376Z,74.49
2022-08-26T02:32:45.054Z,75.05
2022-08-26T02:42:47.840Z,74.76
2022-08-26T02:52:52.505Z,75.16
2022-08-26T03:02:55.598Z,75.77
2022-08-26T03:13:00.528Z,75.89
2022-08-26T03:23:08.123Z,75.95
2022-08-26T03:33:14.334Z,77.82
2022-08-26T03:43:17.897Z,78.50
2022-08-26T03:53:23.790Z,77.98
2022-08-26T04:03:41.757Z,77.75
2022-08-26T04:13:45.876Z,78.40
2022-08-26T04:23:48.721Z,78.43
2022-08-26T04:33:52.758Z,79.56
2022-08-26T04:43:57.036Z,80.55
2022-08-26T04:54:01.703Z,81.99
2022-08-26T05:04:06.022Z,82.52
2022-08-26T05:14:12.524Z,84.31
2022-08-26T05:24:15.765Z,84.80
2022-08-26T05:34:20.865Z,86.64
2022-08-26T05:44:23.868Z,86.75
2022-08-26T05:54:27.916Z,86.32
2022-08-26T06:04:31.287Z,85.74
2022-08-26T06:14:36.024Z,84.85
2022-08-26T06:24:56.224Z,84.04
2022-08-26T06:35:00.530Z,84.47
2022-08-26T06:45:04.456Z,83.79
2022-08-26T06:55:10.767Z,84.29
2022-08-26T07:05:14.504Z,84.45
2022-08-26T07:15:19.287Z,84.05
2022-08-26T07:25:29.943Z,84.16
2022-08-26T07:35:34.171Z,83.38
2022-08-26T07:45:38.135Z,82.44
2022-08-26T07:55:43.053Z,81.83
2022-08-26T08:05:46.412Z,82.29
2022-08-26T08:15:51.253Z,81.78
2022-08-26T08:26:01.686Z,80.49
2022-08-26T08:36:07.667Z,79.56
2022-08-26T08:46:14.946Z,78.95
2022-08-26T08:56:23.693Z,77.03
2022-08-26T09:06:27.702Z,76.41
2022-08-26T09:16:40.648Z,76.81
2022-08-26T09:26:47.609Z,74.12
2022-08-26T09:36:53.548Z,75.58
2022-08-26T09:46:59.883Z,76.31
2022-08-26T09:57:28.951Z,76.08
2022-08-26T10:07:42.221Z,76.53
2022-08-26T10:17:50.672Z,72.45
2022-08-26T10:28:04.806Z,74.64
2022-08-26T10:38:15.077Z,73.06
2022-08-26T10:48:25.151Z,71.86
2022-08-26T10:58:39.491Z,70.97
2022-08-26T11:08:47.178Z,69.39
2022-08-26T11:18:54.604Z,69.67
2022-08-26T11:28:58.256Z,68.81
2022-08-26T11:39:03.163Z,64.16
2022-08-26T11:49:08.305Z,70.19
2022-08-26T11:59:16.725Z,65.25
2022-08-26T12:09:23.018Z,69.05
2022-08-26T12:19:29.413Z,68.39
2022-08-26T12:29:36.391Z,71.44
2022-08-26T12:39:45.567Z,55.00
2022-08-26T12:49:48.296Z,56.86
2022-08-26T12:59:52.423Z,62.95
2022-08-26T13:09:57.003Z,61.76
2022-08-26T13:20:04.146Z,59.65
2022-08-26T13:30:07.943Z,62.23
2022-08-26T13:40:13.071Z,62.37
2022-08-26T13:50:15.899Z,61.84
2022-08-26T14:00:21.015Z,60.18
2022-08-26T14:10:24.207Z,62.78
2022-08-26T14:20:30.791Z,62.77
2022-08-26T14:30:33.711Z,64.32
2022-08-26T14:40:40.098Z,62.47
2022-08-26T14:50:42.813Z,63.27
2022-08-26T15:00:47.050Z,64.77
2022-08-26T15:10:50.701Z,66.57
2022-08-26T15:20:54.755Z,68.21
2022-08-26T15:30:57.571Z,69.50
2022-08-26T15:41:03.395Z,69.52
2022-08-26T15:51:08.317Z,70.87
2022-08-26T16:01:12.398Z,73.06
2022-08-26T16:11:15.802Z,74.51
2022-08-26T16:21:22.437Z,74.94
2022-08-26T16:31:25.285Z,74.66
2022-08-26T16:41:31.152Z,73.72
2022-08-26T16:51:37.682Z,74.13
2022-08-26T17:01:42.516Z,74.29
2022-08-26T17:11:45.615Z,75.53
2022-08-26T17:21:49.891Z,76.24
2022-08-26T17:31:52.617Z,77.13
2022-08-26T17:41:56.634Z,77.18
2022-08-26T17:51:59.815Z,79.19
2022-08-26T18:02:04.001Z,79.77
2022-08-26T18:12:07.369Z,80.78
2022-08-26T18:22:11.451Z,81.87
2022-08-26T18:32:18.706Z,82.17
2022-08-26T18:42:23.536Z,81.02
2022-08-26T18:52:26.365Z,82.10
2022-08-26T19:02:30.826Z,81.38
2022-08-26T19:12:33.599Z,81.51
2022-08-26T19:22:37.804Z,80.46
2022-08-26T19:32:40.539Z,78.92
2022-08-26T19:42:44.767Z,79.09
2022-08-26T19:52:47.939Z,79.25
2022-08-26T20:02:52.994Z,79.72
2022-08-26T20:12:55.916Z,79.37
2022-08-26T20:23:00.272Z,79.51
2022-08-26T20:33:03.025Z,78.94
2022-08-26T20:43:07.183Z,78.92
2022-08-26T20:53:11.129Z,78.79
2022-08-26T21:03:15.287Z,78.49
2022-08-26T21:13:18.464Z,78.56
2022-08-26T21:23:26.349Z,78.26
2022-08-26T21:33:31.500Z,78.24
2022-08-26T21:43:36.756Z,77.96
2022-08-26T21:53:40.395Z,77.43
2022-08-26T22:03:46.822Z,77.17
2022-08-26T22:13:50.764Z,76.70
2022-08-26T22:23:57.986Z,76.24
2022-08-26T22:34:01.321Z,75.67
2022-08-26T22:44:05.792Z,75.27
2022-08-26T22:54:08.512Z,78.12
2022-08-26T23:04:13.013Z,81.66
2022-08-26T23:14:16.332Z,82.79
2022-08-26T23:24:20.528Z,83.45
2022-08-26T23:34:40.717Z,83.55
2022-08-26T23:44:45.559Z,83.81
2022-08-26T23:54:48.725Z,83.81
